Harvey Spirit — WDD4830 — position and weather

sailwx.info

Track history (hours):
 
Tides and Currents Weather Stations Pressure Air Temp Water Temp Dewpoint Dewpoint Depression Visibility Wind Speed Wind Dir Waves Ship Positions

Harvey Spirit

Owner: Harvey Spirit LLC, New Orleans, LA. More information available from US FCC via Universal Licensing System and Coast Guard Vessel Documentation Center.

Last reported at 2017-Sep-10 04:01 UTC. Time now 2017-Nov-23 17:05 UTC.
Position N 29°29' W 094°51'.
Warning: this ship's position is months out of date.

Length 80 m; draft 3.7 m.

Type: Other ship. MMSI: 368584000.

Date/timePositionNaut miles runAvg speedWind from/ knotsBaromVisibWave heightAir tempDewpointWater temp
2017-Sep-10 04:01N 29°29' W 094°51'0 8.5
2017-Sep-10 04:00N 29°29' W 094°52'4 8.9
2017-Sep-10 03:30N 29°33' W 094°54'5 9.2
2017-Sep-10 03:00N 29°36' W 094°57'5 9.3
2017-Sep-10 02:30N 29°41' W 094°59'5 8.1
2017-Sep-10 01:57N 29°44' W 095°03'3 6.4
2017-Sep-10 01:25N 29°44' W 095°06'3 0.2
2017-Sep-09 11:17N 29°45' W 095°10'0 0.0
2017-Sep-09 11:00N 29°45' W 095°10'0 0.0
2017-Sep-09 10:20N 29°45' W 095°10'0 0.0
2017-Sep-09 09:59N 29°45' W 095°10'0 0.0
2017-Sep-09 09:30N 29°45' W 095°10'0 0.0
2017-Sep-09 08:59N 29°45' W 095°10'0 0.0
2017-Sep-09 08:22N 29°45' W 095°10'0 0.0
2017-Sep-09 07:04N 29°45' W 095°10'0 0.0
2017-Sep-09 06:53N 29°45' W 095°10'0 0.0
2017-Sep-09 04:16N 29°45' W 095°10'0 0.0
2017-Sep-09 03:48N 29°45' W 095°10'0 0.0
2017-Sep-09 03:08N 29°45' W 095°10'0 0.0
2017-Sep-09 02:54N 29°45' W 095°10'0 0.0
2017-Sep-09 02:29N 29°45' W 095°10'0 0.0
2017-Sep-08 19:40N 29°45' W 095°10'8 6.3
2017-Sep-08 18:22N 29°42' W 095°01'3 8.0
2017-Sep-08 18:00N 29°40' W 094°59'5 9.1
2017-Sep-08 17:30N 29°36' W 094°57'5 9.3
2017-Sep-08 16:59N 29°32' W 094°54'  
Track history (hours):
 
Tides and Currents Weather Stations Pressure Air Temp Water Temp Dewpoint Dewpoint Depression Visibility Wind Speed Wind Dir Waves Ship Positions

Harvey Spirit

Owner: Harvey Spirit LLC, New Orleans, LA. More information available from US FCC via Universal Licensing System and Coast Guard Vessel Documentation Center.

Last reported at 2017-Sep-10 04:01 UTC. Time now 2017-Nov-23 17:05 UTC.
Position N 29°29' W 094°51'.
Warning: this ship's position is months out of date.

Length 80 m; draft 3.7 m.

Type: Other ship. MMSI: 368584000.

Date/timePositionNaut miles runAvg speedWind from/ knotsBaromVisibWave heightAir tempDewpointWater temp
2017-Sep-10 04:01N 29°29' W 094°51'0 8.5
2017-Sep-10 04:00N 29°29' W 094°52'4 8.9
2017-Sep-10 03:30N 29°33' W 094°54'5 9.2
2017-Sep-10 03:00N 29°36' W 094°57'5 9.3
2017-Sep-10 02:30N 29°41' W 094°59'5 8.1
2017-Sep-10 01:57N 29°44' W 095°03'3 6.4
2017-Sep-10 01:25N 29°44' W 095°06'3 0.2
2017-Sep-09 11:17N 29°45' W 095°10'0 0.0
2017-Sep-09 11:00N 29°45' W 095°10'0 0.0
2017-Sep-09 10:20N 29°45' W 095°10'0 0.0
2017-Sep-09 09:59N 29°45' W 095°10'0 0.0
2017-Sep-09 09:30N 29°45' W 095°10'0 0.0
2017-Sep-09 08:59N 29°45' W 095°10'0 0.0
2017-Sep-09 08:22N 29°45' W 095°10'0 0.0
2017-Sep-09 07:04N 29°45' W 095°10'0 0.0
2017-Sep-09 06:53N 29°45' W 095°10'0 0.0
2017-Sep-09 04:16N 29°45' W 095°10'0 0.0
2017-Sep-09 03:48N 29°45' W 095°10'0 0.0
2017-Sep-09 03:08N 29°45' W 095°10'0 0.0
2017-Sep-09 02:54N 29°45' W 095°10'0 0.0
2017-Sep-09 02:29N 29°45' W 095°10'0 0.0
2017-Sep-08 19:40N 29°45' W 095°10'8 6.3
2017-Sep-08 18:22N 29°42' W 095°01'3 8.0
2017-Sep-08 18:00N 29°40' W 094°59'5 9.1
2017-Sep-08 17:30N 29°36' W 094°57'5 9.3
2017-Sep-08 16:59N 29°32' W 094°54'  

Dump ship's entire track history